Argyle, Texas
Current Conditions -  °F | °C
As of 12:53 AM on Saturday 25 Oct 2014 (Local Time) from KDTO Reporting Station
Clear Clear  
Wind Chill: 68°   Ceiling: Unl
Heat Index: 68°   Visibility: 10mi
Dew Point: 60°   Wind: 8mph
Humidity: 76%   Direction: 160°SSE
Pressure: 30.09"   Gusts: NA
Location:  33.12°N, 97.18°W
Report Text: KDTO 250553Z AUTO 16007KT 10SM CLR 20/16 A3009 RMK AO2 SLP181 T02000156 10250 20194 402890150 51003
Loading
Personal Weather Stations






























Interactive Weather Map
Tropical Storm Tracking
New forecast layout! Learn more

10-Day Weather Forecast

Advertisements
Track Severe Weather on mobile